sensor_id;sensor_type;location;lat;lon;timestamp;temperature;humidity
54431;DHT22;40342;52.998;5.862;2023-07-29T00:00:55;18.40;99.90
54431;DHT22;40342;52.998;5.862;2023-07-29T00:03:21;18.40;99.90
54431;DHT22;40342;52.998;5.862;2023-07-29T00:05:47;18.40;99.90
54431;DHT22;40342;52.998;5.862;2023-07-29T00:08:13;18.40;99.90
54431;DHT22;40342;52.998;5.862;2023-07-29T00:10:39;18.40;99.90
54431;DHT22;40342;52.998;5.862;2023-07-29T00:13:05;18.40;99.90
54431;DHT22;40342;52.998;5.862;2023-07-29T00:15:30;18.40;99.90
54431;DHT22;40342;52.998;5.862;2023-07-29T00:17:56;18.40;99.90
54431;DHT22;40342;52.998;5.862;2023-07-29T00:20:22;18.40;99.90
54431;DHT22;40342;52.998;5.862;2023-07-29T00:22:47;18.30;99.90
54431;DHT22;40342;52.998;5.862;2023-07-29T00:25:15;18.40;99.90
54431;DHT22;40342;52.998;5.862;2023-07-29T00:27:42;18.30;99.90
54431;DHT22;40342;52.998;5.862;2023-07-29T00:30:08;18.30;99.90
54431;DHT22;40342;52.998;5.862;2023-07-29T00:32:34;18.30;99.90
54431;DHT22;40342;52.998;5.862;2023-07-29T00:35:00;18.30;99.90
54431;DHT22;40342;52.998;5.862;2023-07-29T00:37:27;18.30;99.90
54431;DHT22;40342;52.998;5.862;2023-07-29T00:39:52;18.20;99.90
54431;DHT22;40342;52.998;5.862;2023-07-29T00:42:18;18.20;99.90
54431;DHT22;40342;52.998;5.862;2023-07-29T00:44:43;18.20;99.90
54431;DHT22;40342;52.998;5.862;2023-07-29T00:47:11;18.10;99.90
54431;DHT22;40342;52.998;5.862;2023-07-29T00:49:37;18.10;99.90
54431;DHT22;40342;52.998;5.862;2023-07-29T00:52:02;18.10;99.90
54431;DHT22;40342;52.998;5.862;2023-07-29T00:54:28;18.10;99.90
54431;DHT22;40342;52.998;5.862;2023-07-29T00:56:54;18.00;99.90
54431;DHT22;40342;52.998;5.862;2023-07-29T00:59:19;18.00;99.90
54431;DHT22;40342;52.998;5.862;2023-07-29T01:01:45;18.00;99.90
54431;DHT22;40342;52.998;5.862;2023-07-29T01:04:11;17.90;99.90
54431;DHT22;40342;52.998;5.862;2023-07-29T01:07:03;17.90;99.90
54431;DHT22;40342;52.998;5.862;2023-07-29T01:15:22;17.80;99.90
54431;DHT22;40342;52.998;5.862;2023-07-29T01:17:53;17.80;99.90
54431;DHT22;40342;52.998;5.862;2023-07-29T01:20:20;17.80;99.90
54431;DHT22;40342;52.998;5.862;2023-07-29T01:22:46;17.80;99.90
54431;DHT22;40342;52.998;5.862;2023-07-29T01:25:13;17.80;99.90
54431;DHT22;40342;52.998;5.862;2023-07-29T01:27:39;17.80;99.90
54431;DHT22;40342;52.998;5.862;2023-07-29T01:30:05;17.70;99.90
54431;DHT22;40342;52.998;5.862;2023-07-29T01:32:58;17.70;99.90
54431;DHT22;40342;52.998;5.862;2023-07-29T01:35:45;17.70;99.90
54431;DHT22;40342;52.998;5.862;2023-07-29T01:38:17;17.70;99.90
54431;DHT22;40342;52.998;5.862;2023-07-29T01:40:44;17.60;99.90
54431;DHT22;40342;52.998;5.862;2023-07-29T01:43:10;17.60;99.90
54431;DHT22;40342;52.998;5.862;2023-07-29T01:45:36;17.50;99.90
54431;DHT22;40342;52.998;5.862;2023-07-29T01:48:07;17.50;99.90
54431;DHT22;40342;52.998;5.862;2023-07-29T01:50:33;17.50;99.90
54431;DHT22;40342;52.998;5.862;2023-07-29T01:52:59;17.50;99.90
54431;DHT22;40342;52.998;5.862;2023-07-29T01:55:25;17.50;99.90
54431;DHT22;40342;52.998;5.862;2023-07-29T01:57:50;17.50;99.90
54431;DHT22;40342;52.998;5.862;2023-07-29T02:00:18;17.50;99.90
54431;DHT22;40342;52.998;5.862;2023-07-29T02:02:44;17.40;99.90
54431;DHT22;40342;52.998;5.862;2023-07-29T02:05:09;17.40;99.90
54431;DHT22;40342;52.998;5.862;2023-07-29T02:07:35;17.40;99.90
54431;DHT22;40342;52.998;5.862;2023-07-29T02:10:00;17.40;99.90
54431;DHT22;40342;52.998;5.862;2023-07-29T02:12:26;17.40;99.90
54431;DHT22;40342;52.998;5.862;2023-07-29T02:14:52;17.50;99.90
54431;DHT22;40342;52.998;5.862;2023-07-29T02:17:17;17.40;99.90
54431;DHT22;40342;52.998;5.862;2023-07-29T02:19:43;17.50;99.90
54431;DHT22;40342;52.998;5.862;2023-07-29T02:22:10;17.40;99.90
54431;DHT22;40342;52.998;5.862;2023-07-29T02:24:36;17.40;99.90
54431;DHT22;40342;52.998;5.862;2023-07-29T02:27:02;17.40;99.90
54431;DHT22;40342;52.998;5.862;2023-07-29T02:29:27;17.40;99.90
54431;DHT22;40342;52.998;5.862;2023-07-29T02:31:53;17.40;99.90
54431;DHT22;40342;52.998;5.862;2023-07-29T02:34:18;17.40;99.90
54431;DHT22;40342;52.998;5.862;2023-07-29T02:36:44;17.40;99.90
54431;DHT22;40342;52.998;5.862;2023-07-29T02:39:10;17.30;99.90
54431;DHT22;40342;52.998;5.862;2023-07-29T02:41:36;17.30;99.90
54431;DHT22;40342;52.998;5.862;2023-07-29T02:44:02;17.30;99.90
54431;DHT22;40342;52.998;5.862;2023-07-29T02:46:28;17.30;99.90
54431;DHT22;40342;52.998;5.862;2023-07-29T02:48:54;17.30;99.90
54431;DHT22;40342;52.998;5.862;2023-07-29T02:51:19;17.30;99.90
54431;DHT22;40342;52.998;5.862;2023-07-29T02:53:45;17.20;99.90
54431;DHT22;40342;52.998;5.862;2023-07-29T02:56:10;17.20;99.90
54431;DHT22;40342;52.998;5.862;2023-07-29T02:58:37;17.20;99.90
54431;DHT22;40342;52.998;5.862;2023-07-29T03:01:03;17.20;99.90
54431;DHT22;40342;52.998;5.862;2023-07-29T03:03:30;17.20;99.90
54431;DHT22;40342;52.998;5.862;2023-07-29T03:06:00;17.20;99.90
54431;DHT22;40342;52.998;5.862;2023-07-29T03:08:26;17.20;99.90
54431;DHT22;40342;52.998;5.862;2023-07-29T03:10:52;17.10;99.90
54431;DHT22;40342;52.998;5.862;2023-07-29T03:13:17;17.10;99.90
54431;DHT22;40342;52.998;5.862;2023-07-29T03:15:43;17.10;99.90
54431;DHT22;40342;52.998;5.862;2023-07-29T03:18:08;17.10;99.90
54431;DHT22;40342;52.998;5.862;2023-07-29T03:20:34;17.10;99.90
54431;DHT22;40342;52.998;5.862;2023-07-29T03:22:59;17.00;99.90
54431;DHT22;40342;52.998;5.862;2023-07-29T03:25:25;17.10;99.90
54431;DHT22;40342;52.998;5.862;2023-07-29T03:27:50;17.00;99.90
54431;DHT22;40342;52.998;5.862;2023-07-29T03:30:19;17.10;99.90
54431;DHT22;40342;52.998;5.862;2023-07-29T03:32:45;17.00;99.90
54431;DHT22;40342;52.998;5.862;2023-07-29T03:35:10;17.10;99.90
54431;DHT22;40342;52.998;5.862;2023-07-29T03:37:36;17.00;99.90
54431;DHT22;40342;52.998;5.862;2023-07-29T03:40:02;17.00;99.90
54431;DHT22;40342;52.998;5.862;2023-07-29T03:42:28;17.00;99.90
54431;DHT22;40342;52.998;5.862;2023-07-29T03:44:54;17.00;99.90
54431;DHT22;40342;52.998;5.862;2023-07-29T03:47:19;17.00;99.90
54431;DHT22;40342;52.998;5.862;2023-07-29T03:49:45;17.00;99.90
54431;DHT22;40342;52.998;5.862;2023-07-29T03:52:10;17.00;99.90
54431;DHT22;40342;52.998;5.862;2023-07-29T03:54:36;17.00;99.90
54431;DHT22;40342;52.998;5.862;2023-07-29T03:57:02;17.00;99.90
54431;DHT22;40342;52.998;5.862;2023-07-29T03:59:27;16.90;99.90
54431;DHT22;40342;52.998;5.862;2023-07-29T04:01:53;16.90;99.90
54431;DHT22;40342;52.998;5.862;2023-07-29T04:04:19;16.90;99.90
54431;DHT22;40342;52.998;5.862;2023-07-29T04:06:44;16.90;99.90
54431;DHT22;40342;52.998;5.862;2023-07-29T04:09:10;16.90;99.90
54431;DHT22;40342;52.998;5.862;2023-07-29T04:11:35;16.90;99.90
54431;DHT22;40342;52.998;5.862;2023-07-29T04:14:01;17.00;99.90
54431;DHT22;40342;52.998;5.862;2023-07-29T04:16:27;16.90;99.90
54431;DHT22;40342;52.998;5.862;2023-07-29T04:18:54;16.90;99.90
54431;DHT22;40342;52.998;5.862;2023-07-29T04:21:19;17.00;99.90
54431;DHT22;40342;52.998;5.862;2023-07-29T04:23:45;17.00;99.90
54431;DHT22;40342;52.998;5.862;2023-07-29T04:26:10;17.00;99.90
54431;DHT22;40342;52.998;5.862;2023-07-29T04:28:36;17.00;99.90
54431;DHT22;40342;52.998;5.862;2023-07-29T04:31:01;17.00;99.90
54431;DHT22;40342;52.998;5.862;2023-07-29T04:33:29;17.00;99.90
54431;DHT22;40342;52.998;5.862;2023-07-29T04:35:55;17.00;99.90
54431;DHT22;40342;52.998;5.862;2023-07-29T04:38:21;17.10;99.90
54431;DHT22;40342;52.998;5.862;2023-07-29T04:40:49;17.10;99.90
54431;DHT22;40342;52.998;5.862;2023-07-29T04:43:14;17.10;99.90
54431;DHT22;40342;52.998;5.862;2023-07-29T04:45:43;17.10;99.90
54431;DHT22;40342;52.998;5.862;2023-07-29T04:48:09;17.10;99.90
54431;DHT22;40342;52.998;5.862;2023-07-29T04:50:34;17.10;99.90
54431;DHT22;40342;52.998;5.862;2023-07-29T04:53:00;17.10;99.90
54431;DHT22;40342;52.998;5.862;2023-07-29T04:55:26;17.10;99.90
54431;DHT22;40342;52.998;5.862;2023-07-29T04:57:51;17.10;99.90
54431;DHT22;40342;52.998;5.862;2023-07-29T05:00:17;17.10;99.90
54431;DHT22;40342;52.998;5.862;2023-07-29T05:02:43;17.20;99.90
54431;DHT22;40342;52.998;5.862;2023-07-29T05:05:08;17.20;99.90
54431;DHT22;40342;52.998;5.862;2023-07-29T05:07:34;17.20;99.90
54431;DHT22;40342;52.998;5.862;2023-07-29T05:10:00;17.20;99.90
54431;DHT22;40342;52.998;5.862;2023-07-29T05:12:25;17.20;99.90
54431;DHT22;40342;52.998;5.862;2023-07-29T05:14:51;17.30;99.90
54431;DHT22;40342;52.998;5.862;2023-07-29T05:17:16;17.30;99.90
54431;DHT22;40342;52.998;5.862;2023-07-29T05:19:42;17.30;99.90
54431;DHT22;40342;52.998;5.862;2023-07-29T05:22:08;17.30;99.90
54431;DHT22;40342;52.998;5.862;2023-07-29T05:24:33;17.30;99.90
54431;DHT22;40342;52.998;5.862;2023-07-29T05:26:59;17.30;99.90
54431;DHT22;40342;52.998;5.862;2023-07-29T05:29:24;17.30;99.90
54431;DHT22;40342;52.998;5.862;2023-07-29T05:31:50;17.30;99.90
54431;DHT22;40342;52.998;5.862;2023-07-29T05:34:15;17.30;99.90
54431;DHT22;40342;52.998;5.862;2023-07-29T05:36:41;17.40;99.90
54431;DHT22;40342;52.998;5.862;2023-07-29T05:39:06;17.40;99.90
54431;DHT22;40342;52.998;5.862;2023-07-29T05:41:32;17.40;99.90
54431;DHT22;40342;52.998;5.862;2023-07-29T05:43:58;17.40;99.90
54431;DHT22;40342;52.998;5.862;2023-07-29T05:46:23;17.40;99.90
54431;DHT22;40342;52.998;5.862;2023-07-29T05:48:49;17.40;99.90
54431;DHT22;40342;52.998;5.862;2023-07-29T05:51:14;17.40;99.90
54431;DHT22;40342;52.998;5.862;2023-07-29T05:53:40;17.40;99.90
54431;DHT22;40342;52.998;5.862;2023-07-29T05:56:06;17.40;99.90
54431;DHT22;40342;52.998;5.862;2023-07-29T05:58:31;17.50;99.90
54431;DHT22;40342;52.998;5.862;2023-07-29T06:00:57;17.50;99.90
54431;DHT22;40342;52.998;5.862;2023-07-29T06:03:23;17.50;99.90
54431;DHT22;40342;52.998;5.862;2023-07-29T06:05:49;17.50;99.90
54431;DHT22;40342;52.998;5.862;2023-07-29T06:08:14;17.60;99.90
54431;DHT22;40342;52.998;5.862;2023-07-29T06:10:40;17.60;99.90
54431;DHT22;40342;52.998;5.862;2023-07-29T06:13:06;17.60;99.90
54431;DHT22;40342;52.998;5.862;2023-07-29T06:15:31;17.70;99.90
54431;DHT22;40342;52.998;5.862;2023-07-29T06:17:57;17.80;99.90
54431;DHT22;40342;52.998;5.862;2023-07-29T06:20:22;17.80;99.90
54431;DHT22;40342;52.998;5.862;2023-07-29T06:22:48;17.90;99.90
54431;DHT22;40342;52.998;5.862;2023-07-29T06:25:13;17.90;99.90
54431;DHT22;40342;52.998;5.862;2023-07-29T06:27:39;18.00;99.90
54431;DHT22;40342;52.998;5.862;2023-07-29T06:30:05;18.10;99.90
54431;DHT22;40342;52.998;5.862;2023-07-29T06:32:31;18.10;99.90
54431;DHT22;40342;52.998;5.862;2023-07-29T06:34:57;18.10;99.90
54431;DHT22;40342;52.998;5.862;2023-07-29T06:37:22;18.10;99.90
54431;DHT22;40342;52.998;5.862;2023-07-29T06:39:48;18.10;99.90
54431;DHT22;40342;52.998;5.862;2023-07-29T06:42:13;18.20;99.90
54431;DHT22;40342;52.998;5.862;2023-07-29T06:44:40;18.10;99.90
54431;DHT22;40342;52.998;5.862;2023-07-29T06:47:05;18.10;99.90
54431;DHT22;40342;52.998;5.862;2023-07-29T06:49:31;18.10;99.90
54431;DHT22;40342;52.998;5.862;2023-07-29T06:51:56;18.10;99.90
54431;DHT22;40342;52.998;5.862;2023-07-29T06:54:25;18.10;99.90
54431;DHT22;40342;52.998;5.862;2023-07-29T06:56:54;18.10;99.90
54431;DHT22;40342;52.998;5.862;2023-07-29T06:59:19;18.20;99.90
54431;DHT22;40342;52.998;5.862;2023-07-29T07:01:46;18.20;99.90
54431;DHT22;40342;52.998;5.862;2023-07-29T07:04:12;18.20;99.90
54431;DHT22;40342;52.998;5.862;2023-07-29T07:06:37;18.20;99.90
54431;DHT22;40342;52.998;5.862;2023-07-29T07:09:03;18.30;99.90
54431;DHT22;40342;52.998;5.862;2023-07-29T07:11:28;18.40;99.90
54431;DHT22;40342;52.998;5.862;2023-07-29T07:13:54;18.50;99.90
54431;DHT22;40342;52.998;5.862;2023-07-29T07:16:20;18.60;99.90
54431;DHT22;40342;52.998;5.862;2023-07-29T07:18:45;18.60;99.90
54431;DHT22;40342;52.998;5.862;2023-07-29T07:21:11;18.70;99.90
54431;DHT22;40342;52.998;5.862;2023-07-29T07:23:38;18.70;99.90
54431;DHT22;40342;52.998;5.862;2023-07-29T07:26:04;18.70;99.90
54431;DHT22;40342;52.998;5.862;2023-07-29T07:28:30;18.70;99.90
54431;DHT22;40342;52.998;5.862;2023-07-29T07:30:55;18.70;99.90
54431;DHT22;40342;52.998;5.862;2023-07-29T07:33:22;18.60;99.90
54431;DHT22;40342;52.998;5.862;2023-07-29T07:35:47;18.60;99.90
54431;DHT22;40342;52.998;5.862;2023-07-29T07:38:13;18.70;99.90
54431;DHT22;40342;52.998;5.862;2023-07-29T07:40:38;18.70;99.90
54431;DHT22;40342;52.998;5.862;2023-07-29T07:43:04;18.80;99.90
54431;DHT22;40342;52.998;5.862;2023-07-29T07:45:32;18.80;99.90
54431;DHT22;40342;52.998;5.862;2023-07-29T07:47:57;18.80;99.90
54431;DHT22;40342;52.998;5.862;2023-07-29T07:50:23;18.80;99.90
54431;DHT22;40342;52.998;5.862;2023-07-29T07:52:49;18.80;99.90
54431;DHT22;40342;52.998;5.862;2023-07-29T07:55:15;18.80;99.90
54431;DHT22;40342;52.998;5.862;2023-07-29T07:57:40;18.90;99.90
54431;DHT22;40342;52.998;5.862;2023-07-29T08:00:06;18.90;99.90
54431;DHT22;40342;52.998;5.862;2023-07-29T08:02:32;18.90;99.90
54431;DHT22;40342;52.998;5.862;2023-07-29T08:04:58;18.90;99.90
54431;DHT22;40342;52.998;5.862;2023-07-29T08:07:23;18.90;99.90
54431;DHT22;40342;52.998;5.862;2023-07-29T08:09:49;18.90;99.90
54431;DHT22;40342;52.998;5.862;2023-07-29T08:12:14;18.90;99.90
54431;DHT22;40342;52.998;5.862;2023-07-29T08:14:40;18.90;99.90
54431;DHT22;40342;52.998;5.862;2023-07-29T08:17:06;18.80;99.90
54431;DHT22;40342;52.998;5.862;2023-07-29T08:19:32;18.90;99.90
54431;DHT22;40342;52.998;5.862;2023-07-29T08:21:57;18.90;99.90
54431;DHT22;40342;52.998;5.862;2023-07-29T08:24:23;19.00;99.90
54431;DHT22;40342;52.998;5.862;2023-07-29T08:26:49;19.20;99.90
54431;DHT22;40342;52.998;5.862;2023-07-29T08:29:14;19.20;99.90
54431;DHT22;40342;52.998;5.862;2023-07-29T08:31:40;19.30;99.90
54431;DHT22;40342;52.998;5.862;2023-07-29T08:34:06;19.40;99.90
54431;DHT22;40342;52.998;5.862;2023-07-29T08:36:32;19.40;99.90
54431;DHT22;40342;52.998;5.862;2023-07-29T08:38:57;19.40;99.90
54431;DHT22;40342;52.998;5.862;2023-07-29T08:41:31;19.40;99.90
54431;DHT22;40342;52.998;5.862;2023-07-29T08:44:06;19.50;99.90
54431;DHT22;40342;52.998;5.862;2023-07-29T08:46:34;19.50;99.90
54431;DHT22;40342;52.998;5.862;2023-07-29T08:49:01;19.50;99.90
54431;DHT22;40342;52.998;5.862;2023-07-29T08:51:27;19.50;99.90
54431;DHT22;40342;52.998;5.862;2023-07-29T08:53:54;19.50;99.90
54431;DHT22;40342;52.998;5.862;2023-07-29T08:56:20;19.50;99.90
54431;DHT22;40342;52.998;5.862;2023-07-29T08:58:46;19.50;99.90
54431;DHT22;40342;52.998;5.862;2023-07-29T09:01:12;19.50;99.90
54431;DHT22;40342;52.998;5.862;2023-07-29T09:03:40;19.50;99.90
54431;DHT22;40342;52.998;5.862;2023-07-29T09:06:07;19.40;99.90
54431;DHT22;40342;52.998;5.862;2023-07-29T09:08:34;19.40;99.90
54431;DHT22;40342;52.998;5.862;2023-07-29T09:11:00;19.40;99.90
54431;DHT22;40342;52.998;5.862;2023-07-29T09:13:25;19.50;99.90
54431;DHT22;40342;52.998;5.862;2023-07-29T09:15:54;19.60;99.90
54431;DHT22;40342;52.998;5.862;2023-07-29T09:18:21;19.70;99.90
54431;DHT22;40342;52.998;5.862;2023-07-29T09:20:49;19.80;99.90
54431;DHT22;40342;52.998;5.862;2023-07-29T09:23:15;19.80;99.90
54431;DHT22;40342;52.998;5.862;2023-07-29T09:25:41;19.80;99.90
54431;DHT22;40342;52.998;5.862;2023-07-29T09:28:12;19.80;99.90
54431;DHT22;40342;52.998;5.862;2023-07-29T09:30:41;19.80;99.90
54431;DHT22;40342;52.998;5.862;2023-07-29T09:33:10;19.80;99.90
54431;DHT22;40342;52.998;5.862;2023-07-29T09:35:37;19.80;99.90
54431;DHT22;40342;52.998;5.862;2023-07-29T09:38:04;19.80;99.90
54431;DHT22;40342;52.998;5.862;2023-07-29T09:40:40;19.90;99.90
54431;DHT22;40342;52.998;5.862;2023-07-29T09:43:07;19.90;99.90
54431;DHT22;40342;52.998;5.862;2023-07-29T09:45:34;20.00;99.90
54431;DHT22;40342;52.998;5.862;2023-07-29T09:48:02;20.00;99.90
54431;DHT22;40342;52.998;5.862;2023-07-29T09:50:28;20.10;99.90
54431;DHT22;40342;52.998;5.862;2023-07-29T09:52:55;20.10;99.90
54431;DHT22;40342;52.998;5.862;2023-07-29T09:55:22;20.10;99.90
54431;DHT22;40342;52.998;5.862;2023-07-29T09:57:56;20.10;99.90
54431;DHT22;40342;52.998;5.862;2023-07-29T10:00:23;20.10;99.90
54431;DHT22;40342;52.998;5.862;2023-07-29T10:02:49;20.00;99.90
54431;DHT22;40342;52.998;5.862;2023-07-29T10:05:15;19.90;99.90
54431;DHT22;40342;52.998;5.862;2023-07-29T10:07:40;19.90;99.90
54431;DHT22;40342;52.998;5.862;2023-07-29T10:10:07;19.70;99.90
54431;DHT22;40342;52.998;5.862;2023-07-29T10:12:34;19.60;99.90
54431;DHT22;40342;52.998;5.862;2023-07-29T10:15:02;19.50;99.90
54431;DHT22;40342;52.998;5.862;2023-07-29T10:17:28;19.40;99.90
54431;DHT22;40342;52.998;5.862;2023-07-29T10:19:56;19.40;99.90
54431;DHT22;40342;52.998;5.862;2023-07-29T10:22:25;19.30;99.90
54431;DHT22;40342;52.998;5.862;2023-07-29T10:24:54;19.30;99.90
54431;DHT22;40342;52.998;5.862;2023-07-29T10:27:22;19.30;99.90
54431;DHT22;40342;52.998;5.862;2023-07-29T10:29:49;19.40;99.90
54431;DHT22;40342;52.998;5.862;2023-07-29T10:32:15;19.50;99.90
54431;DHT22;40342;52.998;5.862;2023-07-29T10:34:42;19.40;99.90
54431;DHT22;40342;52.998;5.862;2023-07-29T10:37:07;19.40;99.90
54431;DHT22;40342;52.998;5.862;2023-07-29T10:39:52;19.40;99.90
54431;DHT22;40342;52.998;5.862;2023-07-29T10:42:18;19.50;99.90
54431;DHT22;40342;52.998;5.862;2023-07-29T10:44:47;19.70;99.90
54431;DHT22;40342;52.998;5.862;2023-07-29T10:47:16;19.80;99.90
54431;DHT22;40342;52.998;5.862;2023-07-29T10:49:50;19.90;99.90
54431;DHT22;40342;52.998;5.862;2023-07-29T10:52:28;19.90;99.90
54431;DHT22;40342;52.998;5.862;2023-07-29T10:54:55;19.90;99.90
54431;DHT22;40342;52.998;5.862;2023-07-29T10:57:46;19.90;99.90
54431;DHT22;40342;52.998;5.862;2023-07-29T11:00:15;20.00;99.90
54431;DHT22;40342;52.998;5.862;2023-07-29T11:02:41;19.90;99.90
54431;DHT22;40342;52.998;5.862;2023-07-29T11:05:17;19.90;99.90
54431;DHT22;40342;52.998;5.862;2023-07-29T11:07:48;19.80;99.90
54431;DHT22;40342;52.998;5.862;2023-07-29T11:10:15;19.80;99.90
54431;DHT22;40342;52.998;5.862;2023-07-29T11:17:47;19.70;99.90
54431;DHT22;40342;52.998;5.862;2023-07-29T11:20:14;19.60;99.90
54431;DHT22;40342;52.998;5.862;2023-07-29T11:22:41;19.60;99.90
54431;DHT22;40342;52.998;5.862;2023-07-29T11:25:09;19.60;99.90
54431;DHT22;40342;52.998;5.862;2023-07-29T11:27:35;19.70;99.90
54431;DHT22;40342;52.998;5.862;2023-07-29T11:30:05;19.80;99.90
54431;DHT22;40342;52.998;5.862;2023-07-29T11:32:32;20.10;99.90
54431;DHT22;40342;52.998;5.862;2023-07-29T11:35:11;20.30;99.90
54431;DHT22;40342;52.998;5.862;2023-07-29T11:37:38;20.40;99.90
54431;DHT22;40342;52.998;5.862;2023-07-29T11:40:05;20.60;99.90
54431;DHT22;40342;52.998;5.862;2023-07-29T11:42:32;20.90;99.90
54431;DHT22;40342;52.998;5.862;2023-07-29T11:44:59;20.90;99.90
54431;DHT22;40342;52.998;5.862;2023-07-29T11:47:25;20.90;99.90
54431;DHT22;40342;52.998;5.862;2023-07-29T11:49:51;20.80;99.90
54431;DHT22;40342;52.998;5.862;2023-07-29T11:52:18;20.60;99.90
54431;DHT22;40342;52.998;5.862;2023-07-29T11:54:48;20.50;99.90
54431;DHT22;40342;52.998;5.862;2023-07-29T11:57:16;20.40;99.90
54431;DHT22;40342;52.998;5.862;2023-07-29T11:59:42;20.30;99.90
54431;DHT22;40342;52.998;5.862;2023-07-29T12:02:16;20.30;99.90
54431;DHT22;40342;52.998;5.862;2023-07-29T12:04:44;20.30;99.90
54431;DHT22;40342;52.998;5.862;2023-07-29T12:07:10;20.20;99.90
54431;DHT22;40342;52.998;5.862;2023-07-29T12:09:37;20.20;99.90
54431;DHT22;40342;52.998;5.862;2023-07-29T12:12:04;20.10;99.90
54431;DHT22;40342;52.998;5.862;2023-07-29T12:14:31;20.10;99.90
54431;DHT22;40342;52.998;5.862;2023-07-29T12:17:00;20.00;99.90
54431;DHT22;40342;52.998;5.862;2023-07-29T12:19:35;19.90;99.90
54431;DHT22;40342;52.998;5.862;2023-07-29T12:22:06;19.90;99.90
54431;DHT22;40342;52.998;5.862;2023-07-29T12:24:33;19.80;99.90
54431;DHT22;40342;52.998;5.862;2023-07-29T12:26:59;19.80;99.90
54431;DHT22;40342;52.998;5.862;2023-07-29T12:29:25;19.80;99.90
54431;DHT22;40342;52.998;5.862;2023-07-29T12:32:02;20.00;99.90
54431;DHT22;40342;52.998;5.862;2023-07-29T12:34:29;20.00;99.90
54431;DHT22;40342;52.998;5.862;2023-07-29T12:36:56;20.10;99.90
54431;DHT22;40342;52.998;5.862;2023-07-29T12:39:28;20.50;99.90
54431;DHT22;40342;52.998;5.862;2023-07-29T12:41:56;20.70;99.90
54431;DHT22;40342;52.998;5.862;2023-07-29T12:44:27;20.70;99.90
54431;DHT22;40342;52.998;5.862;2023-07-29T12:46:52;20.60;99.90
54431;DHT22;40342;52.998;5.862;2023-07-29T12:49:18;20.50;99.90
54431;DHT22;40342;52.998;5.862;2023-07-29T12:51:44;20.30;99.90
54431;DHT22;40342;52.998;5.862;2023-07-29T12:54:09;20.20;99.90
54431;DHT22;40342;52.998;5.862;2023-07-29T12:56:35;20.20;99.90
54431;DHT22;40342;52.998;5.862;2023-07-29T12:59:01;20.20;99.90
54431;DHT22;40342;52.998;5.862;2023-07-29T13:01:28;20.10;99.90
54431;DHT22;40342;52.998;5.862;2023-07-29T13:03:54;20.10;99.90
54431;DHT22;40342;52.998;5.862;2023-07-29T13:06:20;20.00;99.90
54431;DHT22;40342;52.998;5.862;2023-07-29T13:08:47;20.00;99.90
54431;DHT22;40342;52.998;5.862;2023-07-29T13:11:13;20.10;99.90
54431;DHT22;40342;52.998;5.862;2023-07-29T13:13:39;20.20;99.90
54431;DHT22;40342;52.998;5.862;2023-07-29T13:16:05;20.50;99.90
54431;DHT22;40342;52.998;5.862;2023-07-29T13:18:31;20.60;99.90
54431;DHT22;40342;52.998;5.862;2023-07-29T13:20:57;21.00;99.90
54431;DHT22;40342;52.998;5.862;2023-07-29T13:23:23;21.30;99.90
54431;DHT22;40342;52.998;5.862;2023-07-29T13:25:48;21.40;99.90
54431;DHT22;40342;52.998;5.862;2023-07-29T13:28:14;21.50;99.90
54431;DHT22;40342;52.998;5.862;2023-07-29T13:30:40;21.60;99.90
54431;DHT22;40342;52.998;5.862;2023-07-29T13:33:09;21.70;99.90
54431;DHT22;40342;52.998;5.862;2023-07-29T13:35:34;21.80;99.90
54431;DHT22;40342;52.998;5.862;2023-07-29T13:38:00;21.90;99.90
54431;DHT22;40342;52.998;5.862;2023-07-29T13:40:26;22.00;99.90
54431;DHT22;40342;52.998;5.862;2023-07-29T13:42:52;22.30;99.90
54431;DHT22;40342;52.998;5.862;2023-07-29T13:45:18;22.40;99.90
54431;DHT22;40342;52.998;5.862;2023-07-29T13:47:44;22.50;99.90
54431;DHT22;40342;52.998;5.862;2023-07-29T13:50:09;22.50;99.90
54431;DHT22;40342;52.998;5.862;2023-07-29T13:52:36;22.50;99.90
54431;DHT22;40342;52.998;5.862;2023-07-29T13:55:03;22.40;99.90
54431;DHT22;40342;52.998;5.862;2023-07-29T13:57:29;22.40;99.90
54431;DHT22;40342;52.998;5.862;2023-07-29T13:59:54;22.20;99.90
54431;DHT22;40342;52.998;5.862;2023-07-29T14:02:20;22.20;99.90
54431;DHT22;40342;52.998;5.862;2023-07-29T14:04:45;22.40;99.90
54431;DHT22;40342;52.998;5.862;2023-07-29T14:07:11;22.50;99.90
54431;DHT22;40342;52.998;5.862;2023-07-29T14:09:36;22.50;99.90
54431;DHT22;40342;52.998;5.862;2023-07-29T14:12:04;22.60;99.90
54431;DHT22;40342;52.998;5.862;2023-07-29T14:14:30;22.70;99.90
54431;DHT22;40342;52.998;5.862;2023-07-29T14:16:56;22.80;99.90
54431;DHT22;40342;52.998;5.862;2023-07-29T14:19:21;22.80;99.90
54431;DHT22;40342;52.998;5.862;2023-07-29T14:21:48;22.60;99.90
54431;DHT22;40342;52.998;5.862;2023-07-29T14:24:13;22.50;99.90
54431;DHT22;40342;52.998;5.862;2023-07-29T14:26:41;22.40;99.90
54431;DHT22;40342;52.998;5.862;2023-07-29T14:29:06;22.50;99.90
54431;DHT22;40342;52.998;5.862;2023-07-29T14:31:32;22.50;99.90
54431;DHT22;40342;52.998;5.862;2023-07-29T14:33:57;22.60;99.90
54431;DHT22;40342;52.998;5.862;2023-07-29T14:36:23;22.40;99.90
54431;DHT22;40342;52.998;5.862;2023-07-29T14:38:49;22.20;99.90
54431;DHT22;40342;52.998;5.862;2023-07-29T14:41:15;22.00;99.90
54431;DHT22;40342;52.998;5.862;2023-07-29T14:43:40;22.00;99.90
54431;DHT22;40342;52.998;5.862;2023-07-29T14:46:06;22.10;99.90
54431;DHT22;40342;52.998;5.862;2023-07-29T14:48:32;22.20;99.90
54431;DHT22;40342;52.998;5.862;2023-07-29T14:50:57;22.20;99.90
54431;DHT22;40342;52.998;5.862;2023-07-29T14:53:23;22.40;99.90
54431;DHT22;40342;52.998;5.862;2023-07-29T14:55:49;22.50;99.90
54431;DHT22;40342;52.998;5.862;2023-07-29T14:58:14;22.60;99.90
54431;DHT22;40342;52.998;5.862;2023-07-29T15:00:40;22.60;99.90
54431;DHT22;40342;52.998;5.862;2023-07-29T15:03:06;22.70;99.90
54431;DHT22;40342;52.998;5.862;2023-07-29T15:05:32;22.70;99.90
54431;DHT22;40342;52.998;5.862;2023-07-29T15:07:58;22.70;99.90
54431;DHT22;40342;52.998;5.862;2023-07-29T15:10:24;22.70;99.90
54431;DHT22;40342;52.998;5.862;2023-07-29T15:12:49;22.60;99.90
54431;DHT22;40342;52.998;5.862;2023-07-29T15:15:15;22.60;99.90
54431;DHT22;40342;52.998;5.862;2023-07-29T15:17:40;22.50;99.90
54431;DHT22;40342;52.998;5.862;2023-07-29T15:20:06;22.50;99.90
54431;DHT22;40342;52.998;5.862;2023-07-29T15:22:33;22.50;99.90
54431;DHT22;40342;52.998;5.862;2023-07-29T15:24:58;22.40;99.90
54431;DHT22;40342;52.998;5.862;2023-07-29T15:27:28;22.50;99.90
54431;DHT22;40342;52.998;5.862;2023-07-29T15:29:53;22.50;99.90
54431;DHT22;40342;52.998;5.862;2023-07-29T15:32:19;22.50;99.90
54431;DHT22;40342;52.998;5.862;2023-07-29T15:34:45;22.40;99.90
54431;DHT22;40342;52.998;5.862;2023-07-29T15:37:10;22.30;99.90